Butts AAF (Fort Carson) Air Field
KFCS : now visible

Airfield :











YOU CAN JOIN US ON...

 
LOGIN :

Register | Disclaimer

   EN    FR    IT 

 









Legend :    VFR   Marginal VFR   IFR   Intensive IFR   Very Intensive IFR
Visi :
Ceiling :
>= 8 km
>= 3000ft
5 to 8 km
1000 to 3000 ft
1500m to 5 km
500 to 1000 ft
800 to 1500m
200 to 500 ft
< 800m
< 200 ft
Symbols :   Thunderstorms  Fog  Heavy snow  Heavy precipitations  Wind > 20 kt






- Airport Elevation : 5838 ft


KFCS - Butts AAF (Fort Carson) Air Field

CURRENT METAR :
  • 170255Z AUTO 33012KT 10SM CLR 25/07 A2974 RMK AO2 SLP987 T02540066 53005 $

EXPIRED METARs :
  • 170155Z AUTO 21007KT 10SM CLR 30/M05 A2972 RMK AO2 SLP980 T03031047 $
  • 170055Z AUTO 15006KT 10SM BKN140 OVC170 32/00 A2972 RMK AO2 SLP980 T03190000 $
  • 162355Z AUTO 19011KT 10SM BKN150 33/M04 A2972 RMK AO2 SLP988 T03301041 10348 20323 57017 $
  • 162255Z AUTO 20011G18KT 10SM CLR 34/M07 A2974 RMK AO2 SLP991 T03411066 $
  • 162213Z AUTO 20012G23KT 10SM CLR 34/M06 A2976 RMK AO2 WSHFT 2158 SLP998 $

Expired Forecast.
KZDV FIR / North America



MET'MAP, your aeronautical weather chart ! - Copyright ORBIFLY December 2007 - Disclaimer

ORBIFLY MET'MAP TEAM :

Programming & Development : Alexandra Zaïnal
Original concept : Baudouin d'Aumeries
Technical & hardware support : Manuel Goepfert
Assistance : Marc-Olivier Méhu




SOURCES & CREDITS :

   NOAA       Earth
Advisory